sensor_id;sensor_type;location;lat;lon;timestamp;temperature;humidity
20337;DHT22;10326;53.660;10.200;2023-04-03T00:00:42;5.20;64.10
20337;DHT22;10326;53.660;10.200;2023-04-03T00:03:10;5.10;64.10
20337;DHT22;10326;53.660;10.200;2023-04-03T00:05:37;5.10;64.10
20337;DHT22;10326;53.660;10.200;2023-04-03T00:08:04;5.10;64.10
20337;DHT22;10326;53.660;10.200;2023-04-03T00:10:33;5.10;64.20
20337;DHT22;10326;53.660;10.200;2023-04-03T00:13:02;5.10;64.20
20337;DHT22;10326;53.660;10.200;2023-04-03T00:15:31;5.00;64.10
20337;DHT22;10326;53.660;10.200;2023-04-03T00:17:58;5.00;64.10
20337;DHT22;10326;53.660;10.200;2023-04-03T00:20:25;5.00;64.10
20337;DHT22;10326;53.660;10.200;2023-04-03T00:22:53;5.00;64.20
20337;DHT22;10326;53.660;10.200;2023-04-03T00:25:20;4.90;64.20
20337;DHT22;10326;53.660;10.200;2023-04-03T00:27:48;4.90;64.20
20337;DHT22;10326;53.660;10.200;2023-04-03T00:30:18;4.90;64.30
20337;DHT22;10326;53.660;10.200;2023-04-03T00:32:49;4.90;64.40
20337;DHT22;10326;53.660;10.200;2023-04-03T00:35:17;4.90;64.40
20337;DHT22;10326;53.660;10.200;2023-04-03T00:37:46;4.80;64.30
20337;DHT22;10326;53.660;10.200;2023-04-03T00:40:14;4.80;64.40
20337;DHT22;10326;53.660;10.200;2023-04-03T00:42:43;4.80;64.60
20337;DHT22;10326;53.660;10.200;2023-04-03T00:45:26;4.80;64.70
20337;DHT22;10326;53.660;10.200;2023-04-03T00:48:00;4.80;65.00
20337;DHT22;10326;53.660;10.200;2023-04-03T00:50:29;4.80;64.70
20337;DHT22;10326;53.660;10.200;2023-04-03T00:52:57;4.70;64.60
20337;DHT22;10326;53.660;10.200;2023-04-03T00:55:25;4.70;64.70
20337;DHT22;10326;53.660;10.200;2023-04-03T00:57:53;4.70;64.70
20337;DHT22;10326;53.660;10.200;2023-04-03T01:00:23;4.70;64.80
20337;DHT22;10326;53.660;10.200;2023-04-03T01:02:51;4.60;64.80
20337;DHT22;10326;53.660;10.200;2023-04-03T01:05:21;4.60;65.30
20337;DHT22;10326;53.660;10.200;2023-04-03T01:07:49;4.60;64.80
20337;DHT22;10326;53.660;10.200;2023-04-03T01:10:19;4.60;64.90
20337;DHT22;10326;53.660;10.200;2023-04-03T01:12:49;4.60;64.80
20337;DHT22;10326;53.660;10.200;2023-04-03T01:15:19;4.60;64.80
20337;DHT22;10326;53.660;10.200;2023-04-03T01:17:50;4.50;64.80
20337;DHT22;10326;53.660;10.200;2023-04-03T01:24:05;4.50;65.50
20337;DHT22;10326;53.660;10.200;2023-04-03T01:26:42;4.50;65.20
20337;DHT22;10326;53.660;10.200;2023-04-03T01:29:09;4.50;64.90
20337;DHT22;10326;53.660;10.200;2023-04-03T01:31:54;4.40;65.00
20337;DHT22;10326;53.660;10.200;2023-04-03T01:34:24;4.40;65.50
20337;DHT22;10326;53.660;10.200;2023-04-03T01:36:53;4.40;65.10
20337;DHT22;10326;53.660;10.200;2023-04-03T01:39:21;4.40;65.20
20337;DHT22;10326;53.660;10.200;2023-04-03T01:41:50;4.30;65.20
20337;DHT22;10326;53.660;10.200;2023-04-03T01:44:23;4.30;65.20
20337;DHT22;10326;53.660;10.200;2023-04-03T01:46:50;4.30;65.20
20337;DHT22;10326;53.660;10.200;2023-04-03T01:49:21;4.30;65.20
20337;DHT22;10326;53.660;10.200;2023-04-03T01:51:48;4.30;65.30
20337;DHT22;10326;53.660;10.200;2023-04-03T01:54:15;4.30;65.40
20337;DHT22;10326;53.660;10.200;2023-04-03T01:56:43;4.30;65.40
20337;DHT22;10326;53.660;10.200;2023-04-03T01:59:10;4.30;65.40
20337;DHT22;10326;53.660;10.200;2023-04-03T02:01:37;4.30;65.40
20337;DHT22;10326;53.660;10.200;2023-04-03T02:04:05;4.30;65.50
20337;DHT22;10326;53.660;10.200;2023-04-03T02:06:33;4.20;65.40
20337;DHT22;10326;53.660;10.200;2023-04-03T02:09:01;4.20;65.50
20337;DHT22;10326;53.660;10.200;2023-04-03T02:11:29;4.20;65.50
20337;DHT22;10326;53.660;10.200;2023-04-03T02:13:57;4.20;65.40
20337;DHT22;10326;53.660;10.200;2023-04-03T02:16:24;4.20;65.40
20337;DHT22;10326;53.660;10.200;2023-04-03T02:18:51;4.20;65.40
20337;DHT22;10326;53.660;10.200;2023-04-03T02:21:18;4.20;65.50
20337;DHT22;10326;53.660;10.200;2023-04-03T02:23:48;4.20;65.50
20337;DHT22;10326;53.660;10.200;2023-04-03T02:26:17;4.10;65.50
20337;DHT22;10326;53.660;10.200;2023-04-03T02:28:45;4.10;65.50
20337;DHT22;10326;53.660;10.200;2023-04-03T02:31:12;4.10;65.50
20337;DHT22;10326;53.660;10.200;2023-04-03T02:33:41;4.10;65.50
20337;DHT22;10326;53.660;10.200;2023-04-03T02:36:10;4.10;65.50
20337;DHT22;10326;53.660;10.200;2023-04-03T02:38:40;4.10;65.40
20337;DHT22;10326;53.660;10.200;2023-04-03T02:41:11;4.10;65.50
20337;DHT22;10326;53.660;10.200;2023-04-03T02:43:39;4.10;65.50
20337;DHT22;10326;53.660;10.200;2023-04-03T02:46:07;4.00;65.50
20337;DHT22;10326;53.660;10.200;2023-04-03T02:48:35;4.00;65.50
20337;DHT22;10326;53.660;10.200;2023-04-03T02:51:03;4.00;65.50
20337;DHT22;10326;53.660;10.200;2023-04-03T02:53:31;4.00;65.50
20337;DHT22;10326;53.660;10.200;2023-04-03T02:56:04;4.00;65.60
20337;DHT22;10326;53.660;10.200;2023-04-03T02:58:33;4.00;65.60
20337;DHT22;10326;53.660;10.200;2023-04-03T03:01:03;4.00;65.60
20337;DHT22;10326;53.660;10.200;2023-04-03T03:03:30;3.90;65.50
20337;DHT22;10326;53.660;10.200;2023-04-03T03:06:02;3.90;65.50
20337;DHT22;10326;53.660;10.200;2023-04-03T03:08:30;3.90;65.60
20337;DHT22;10326;53.660;10.200;2023-04-03T03:10:57;3.90;65.50
20337;DHT22;10326;53.660;10.200;2023-04-03T03:13:25;3.90;66.10
20337;DHT22;10326;53.660;10.200;2023-04-03T03:15:53;3.90;65.60
20337;DHT22;10326;53.660;10.200;2023-04-03T03:18:21;3.90;65.60
20337;DHT22;10326;53.660;10.200;2023-04-03T03:20:51;3.80;65.60
20337;DHT22;10326;53.660;10.200;2023-04-03T03:23:19;3.80;65.70
20337;DHT22;10326;53.660;10.200;2023-04-03T03:25:47;3.80;65.60
20337;DHT22;10326;53.660;10.200;2023-04-03T03:28:14;3.80;65.60
20337;DHT22;10326;53.660;10.200;2023-04-03T03:30:42;3.80;65.60
20337;DHT22;10326;53.660;10.200;2023-04-03T03:33:11;3.80;65.70
20337;DHT22;10326;53.660;10.200;2023-04-03T03:35:38;3.70;65.60
20337;DHT22;10326;53.660;10.200;2023-04-03T03:38:05;3.70;65.70
20337;DHT22;10326;53.660;10.200;2023-04-03T03:40:32;3.70;65.70
20337;DHT22;10326;53.660;10.200;2023-04-03T03:43:00;3.70;65.70
20337;DHT22;10326;53.660;10.200;2023-04-03T03:45:27;3.70;65.70
20337;DHT22;10326;53.660;10.200;2023-04-03T03:47:54;3.70;65.70
20337;DHT22;10326;53.660;10.200;2023-04-03T03:50:24;3.70;65.70
20337;DHT22;10326;53.660;10.200;2023-04-03T03:52:51;3.60;65.70
20337;DHT22;10326;53.660;10.200;2023-04-03T03:55:19;3.60;65.60
20337;DHT22;10326;53.660;10.200;2023-04-03T03:57:51;3.60;65.70
20337;DHT22;10326;53.660;10.200;2023-04-03T04:00:18;3.60;65.70
20337;DHT22;10326;53.660;10.200;2023-04-03T04:02:51;3.60;65.70
20337;DHT22;10326;53.660;10.200;2023-04-03T04:05:21;3.60;65.70
20337;DHT22;10326;53.660;10.200;2023-04-03T04:07:49;3.50;65.70
20337;DHT22;10326;53.660;10.200;2023-04-03T04:10:17;3.50;65.70
20337;DHT22;10326;53.660;10.200;2023-04-03T04:12:45;3.50;65.70
20337;DHT22;10326;53.660;10.200;2023-04-03T04:15:14;3.50;65.80
20337;DHT22;10326;53.660;10.200;2023-04-03T04:17:42;3.50;65.80
20337;DHT22;10326;53.660;10.200;2023-04-03T04:20:11;3.50;65.70
20337;DHT22;10326;53.660;10.200;2023-04-03T04:22:39;3.50;65.80
20337;DHT22;10326;53.660;10.200;2023-04-03T04:25:08;3.40;65.80
20337;DHT22;10326;53.660;10.200;2023-04-03T04:27:37;3.40;65.80
20337;DHT22;10326;53.660;10.200;2023-04-03T04:30:06;3.40;65.80
20337;DHT22;10326;53.660;10.200;2023-04-03T04:32:34;3.40;65.80
20337;DHT22;10326;53.660;10.200;2023-04-03T04:35:03;3.40;65.90
20337;DHT22;10326;53.660;10.200;2023-04-03T04:37:33;3.30;65.80
20337;DHT22;10326;53.660;10.200;2023-04-03T04:40:01;3.30;65.80
20337;DHT22;10326;53.660;10.200;2023-04-03T04:42:30;3.30;65.90
20337;DHT22;10326;53.660;10.200;2023-04-03T04:44:58;3.30;66.00
20337;DHT22;10326;53.660;10.200;2023-04-03T04:47:25;3.30;66.00
20337;DHT22;10326;53.660;10.200;2023-04-03T04:49:52;3.30;66.00
20337;DHT22;10326;53.660;10.200;2023-04-03T04:52:20;3.30;66.00
20337;DHT22;10326;53.660;10.200;2023-04-03T04:54:47;3.30;66.00
20337;DHT22;10326;53.660;10.200;2023-04-03T04:57:15;3.30;66.00
20337;DHT22;10326;53.660;10.200;2023-04-03T04:59:46;3.30;66.00
20337;DHT22;10326;53.660;10.200;2023-04-03T05:02:14;3.30;66.10
20337;DHT22;10326;53.660;10.200;2023-04-03T05:04:43;3.20;66.00
20337;DHT22;10326;53.660;10.200;2023-04-03T05:07:17;3.20;66.10
20337;DHT22;10326;53.660;10.200;2023-04-03T05:09:44;3.20;66.00
20337;DHT22;10326;53.660;10.200;2023-04-03T05:12:13;3.20;66.00
20337;DHT22;10326;53.660;10.200;2023-04-03T05:14:48;3.20;66.10
20337;DHT22;10326;53.660;10.200;2023-04-03T05:17:16;3.20;66.10
20337;DHT22;10326;53.660;10.200;2023-04-03T05:19:48;3.20;66.10
20337;DHT22;10326;53.660;10.200;2023-04-03T05:22:17;3.20;66.20
20337;DHT22;10326;53.660;10.200;2023-04-03T05:24:45;3.20;66.30
20337;DHT22;10326;53.660;10.200;2023-04-03T05:27:12;3.20;66.40
20337;DHT22;10326;53.660;10.200;2023-04-03T05:29:43;3.20;66.40
20337;DHT22;10326;53.660;10.200;2023-04-03T05:32:14;3.20;66.50
20337;DHT22;10326;53.660;10.200;2023-04-03T05:34:43;3.20;66.60
20337;DHT22;10326;53.660;10.200;2023-04-03T05:37:12;3.20;66.50
20337;DHT22;10326;53.660;10.200;2023-04-03T05:39:41;3.20;66.70
20337;DHT22;10326;53.660;10.200;2023-04-03T05:42:09;3.20;66.70
20337;DHT22;10326;53.660;10.200;2023-04-03T05:44:37;3.20;66.90
20337;DHT22;10326;53.660;10.200;2023-04-03T05:47:05;3.20;66.90
20337;DHT22;10326;53.660;10.200;2023-04-03T05:49:34;3.20;67.00
20337;DHT22;10326;53.660;10.200;2023-04-03T05:52:01;3.20;67.00
20337;DHT22;10326;53.660;10.200;2023-04-03T05:54:30;3.20;67.10
20337;DHT22;10326;53.660;10.200;2023-04-03T05:57:18;3.20;67.20
20337;DHT22;10326;53.660;10.200;2023-04-03T05:59:46;3.30;67.20
20337;DHT22;10326;53.660;10.200;2023-04-03T06:02:18;3.30;67.30
20337;DHT22;10326;53.660;10.200;2023-04-03T06:04:49;3.30;67.60
20337;DHT22;10326;53.660;10.200;2023-04-03T06:07:20;3.30;67.60
20337;DHT22;10326;53.660;10.200;2023-04-03T06:09:51;3.40;67.70
20337;DHT22;10326;53.660;10.200;2023-04-03T06:12:19;3.40;67.80
20337;DHT22;10326;53.660;10.200;2023-04-03T06:14:47;3.40;68.00
20337;DHT22;10326;53.660;10.200;2023-04-03T06:17:14;3.40;68.10
20337;DHT22;10326;53.660;10.200;2023-04-03T06:19:43;3.50;68.30
20337;DHT22;10326;53.660;10.200;2023-04-03T06:24:46;3.60;69.50
20337;DHT22;10326;53.660;10.200;2023-04-03T06:27:14;3.60;68.80
20337;DHT22;10326;53.660;10.200;2023-04-03T06:29:41;3.70;68.90
20337;DHT22;10326;53.660;10.200;2023-04-03T06:32:10;3.70;69.10
20337;DHT22;10326;53.660;10.200;2023-04-03T06:34:38;3.80;69.40
20337;DHT22;10326;53.660;10.200;2023-04-03T06:37:05;3.80;69.50
20337;DHT22;10326;53.660;10.200;2023-04-03T06:39:32;3.90;69.80
20337;DHT22;10326;53.660;10.200;2023-04-03T06:44:37;4.00;70.20
20337;DHT22;10326;53.660;10.200;2023-04-03T06:47:05;4.10;70.40
20337;DHT22;10326;53.660;10.200;2023-04-03T06:52:00;4.20;70.50
20337;DHT22;10326;53.660;10.200;2023-04-03T06:54:27;4.30;70.70
20337;DHT22;10326;53.660;10.200;2023-04-03T06:59:24;4.40;70.70
20337;DHT22;10326;53.660;10.200;2023-04-03T07:04:21;4.60;71.50
20337;DHT22;10326;53.660;10.200;2023-04-03T07:06:48;4.60;71.00
20337;DHT22;10326;53.660;10.200;2023-04-03T07:11:45;4.70;71.40
20337;DHT22;10326;53.660;10.200;2023-04-03T07:14:12;4.80;71.40
20337;DHT22;10326;53.660;10.200;2023-04-03T07:16:39;4.90;71.50
20337;DHT22;10326;53.660;10.200;2023-04-03T07:19:07;4.90;71.50
20337;DHT22;10326;53.660;10.200;2023-04-03T07:21:36;5.00;71.60
20337;DHT22;10326;53.660;10.200;2023-04-03T07:24:04;5.10;71.80
20337;DHT22;10326;53.660;10.200;2023-04-03T07:26:31;5.20;71.90
20337;DHT22;10326;53.660;10.200;2023-04-03T07:28:58;5.20;71.90
20337;DHT22;10326;53.660;10.200;2023-04-03T07:31:26;5.30;72.00
20337;DHT22;10326;53.660;10.200;2023-04-03T07:33:54;5.40;72.00
20337;DHT22;10326;53.660;10.200;2023-04-03T07:36:22;5.40;72.10
20337;DHT22;10326;53.660;10.200;2023-04-03T07:38:51;5.50;72.10
20337;DHT22;10326;53.660;10.200;2023-04-03T07:41:19;5.60;72.00
20337;DHT22;10326;53.660;10.200;2023-04-03T07:43:48;5.70;71.90
20337;DHT22;10326;53.660;10.200;2023-04-03T07:46:16;5.70;71.70
20337;DHT22;10326;53.660;10.200;2023-04-03T07:48:44;5.80;71.40
20337;DHT22;10326;53.660;10.200;2023-04-03T07:51:12;5.80;71.10
20337;DHT22;10326;53.660;10.200;2023-04-03T07:53:40;5.90;71.20
20337;DHT22;10326;53.660;10.200;2023-04-03T07:56:09;6.00;71.10
20337;DHT22;10326;53.660;10.200;2023-04-03T07:58:36;6.10;71.10
20337;DHT22;10326;53.660;10.200;2023-04-03T08:01:04;6.10;71.00
20337;DHT22;10326;53.660;10.200;2023-04-03T08:03:32;6.10;70.90
20337;DHT22;10326;53.660;10.200;2023-04-03T08:06:02;6.20;70.80
20337;DHT22;10326;53.660;10.200;2023-04-03T08:08:30;6.30;70.70
20337;DHT22;10326;53.660;10.200;2023-04-03T08:11:00;6.40;70.80
20337;DHT22;10326;53.660;10.200;2023-04-03T08:13:29;6.40;70.70
20337;DHT22;10326;53.660;10.200;2023-04-03T08:15:56;6.40;70.50
20337;DHT22;10326;53.660;10.200;2023-04-03T08:18:25;6.50;70.20
20337;DHT22;10326;53.660;10.200;2023-04-03T08:20:52;6.60;70.10
20337;DHT22;10326;53.660;10.200;2023-04-03T08:23:19;6.60;69.90
20337;DHT22;10326;53.660;10.200;2023-04-03T08:25:47;6.70;69.80
20337;DHT22;10326;53.660;10.200;2023-04-03T08:28:14;6.70;69.60
20337;DHT22;10326;53.660;10.200;2023-04-03T08:30:42;6.80;69.60
20337;DHT22;10326;53.660;10.200;2023-04-03T08:33:10;6.80;69.50
20337;DHT22;10326;53.660;10.200;2023-04-03T08:35:40;6.90;69.40
20337;DHT22;10326;53.660;10.200;2023-04-03T08:38:09;6.90;69.00
20337;DHT22;10326;53.660;10.200;2023-04-03T08:40:36;7.00;68.80
20337;DHT22;10326;53.660;10.200;2023-04-03T08:43:21;7.00;68.50
20337;DHT22;10326;53.660;10.200;2023-04-03T08:45:57;7.00;68.00
20337;DHT22;10326;53.660;10.200;2023-04-03T08:48:30;7.10;68.30
20337;DHT22;10326;53.660;10.200;2023-04-03T08:51:02;7.10;68.30
20337;DHT22;10326;53.660;10.200;2023-04-03T08:53:40;7.20;68.00
20337;DHT22;10326;53.660;10.200;2023-04-03T08:56:10;7.20;67.50
20337;DHT22;10326;53.660;10.200;2023-04-03T08:58:44;7.20;67.00
20337;DHT22;10326;53.660;10.200;2023-04-03T09:01:20;7.30;66.80
20337;DHT22;10326;53.660;10.200;2023-04-03T09:03:49;7.40;66.10
20337;DHT22;10326;53.660;10.200;2023-04-03T09:06:20;7.40;66.20
20337;DHT22;10326;53.660;10.200;2023-04-03T09:08:53;7.40;65.70
20337;DHT22;10326;53.660;10.200;2023-04-03T09:11:38;7.40;65.30
20337;DHT22;10326;53.660;10.200;2023-04-03T09:14:17;7.50;65.10
20337;DHT22;10326;53.660;10.200;2023-04-03T09:16:54;7.50;65.30
20337;DHT22;10326;53.660;10.200;2023-04-03T09:19:31;7.50;65.10
20337;DHT22;10326;53.660;10.200;2023-04-03T09:22:13;7.60;64.40
20337;DHT22;10326;53.660;10.200;2023-04-03T09:24:44;7.70;64.10
20337;DHT22;10326;53.660;10.200;2023-04-03T09:27:13;7.70;64.30
20337;DHT22;10326;53.660;10.200;2023-04-03T09:29:42;7.70;64.20
20337;DHT22;10326;53.660;10.200;2023-04-03T09:32:28;7.70;64.10
20337;DHT22;10326;53.660;10.200;2023-04-03T09:34:58;7.80;63.20
20337;DHT22;10326;53.660;10.200;2023-04-03T09:37:40;7.80;64.00
20337;DHT22;10326;53.660;10.200;2023-04-03T09:40:28;7.90;63.20
20337;DHT22;10326;53.660;10.200;2023-04-03T09:43:00;8.00;63.30
20337;DHT22;10326;53.660;10.200;2023-04-03T09:45:30;8.00;64.20
20337;DHT22;10326;53.660;10.200;2023-04-03T09:48:08;8.00;63.90
20337;DHT22;10326;53.660;10.200;2023-04-03T09:50:59;8.10;63.00
20337;DHT22;10326;53.660;10.200;2023-04-03T09:53:32;8.20;63.00
20337;DHT22;10326;53.660;10.200;2023-04-03T09:56:04;8.20;63.70
20337;DHT22;10326;53.660;10.200;2023-04-03T09:58:38;8.20;63.10
20337;DHT22;10326;53.660;10.200;2023-04-03T10:01:23;8.30;62.30
20337;DHT22;10326;53.660;10.200;2023-04-03T10:04:10;8.30;60.90
20337;DHT22;10326;53.660;10.200;2023-04-03T10:06:41;8.40;61.30
20337;DHT22;10326;53.660;10.200;2023-04-03T10:09:25;8.40;62.40
20337;DHT22;10326;53.660;10.200;2023-04-03T10:11:59;8.40;61.30
20337;DHT22;10326;53.660;10.200;2023-04-03T10:14:30;8.50;62.20
20337;DHT22;10326;53.660;10.200;2023-04-03T10:17:05;8.50;62.70
20337;DHT22;10326;53.660;10.200;2023-04-03T10:19:45;8.60;62.30
20337;DHT22;10326;53.660;10.200;2023-04-03T10:22:20;8.60;62.00
20337;DHT22;10326;53.660;10.200;2023-04-03T10:24:55;8.70;62.20
20337;DHT22;10326;53.660;10.200;2023-04-03T10:27:41;8.70;62.40
20337;DHT22;10326;53.660;10.200;2023-04-03T10:30:21;8.80;62.20
20337;DHT22;10326;53.660;10.200;2023-04-03T10:33:18;8.90;61.30
20337;DHT22;10326;53.660;10.200;2023-04-03T10:35:59;9.00;61.30
20337;DHT22;10326;53.660;10.200;2023-04-03T10:38:42;9.00;62.00
20337;DHT22;10326;53.660;10.200;2023-04-03T10:41:17;9.10;61.80
20337;DHT22;10326;53.660;10.200;2023-04-03T10:43:55;9.10;62.00
20337;DHT22;10326;53.660;10.200;2023-04-03T10:46:30;9.20;62.40
20337;DHT22;10326;53.660;10.200;2023-04-03T10:49:08;9.30;62.40
20337;DHT22;10326;53.660;10.200;2023-04-03T10:51:45;9.40;62.60
20337;DHT22;10326;53.660;10.200;2023-04-03T10:54:20;9.50;62.40
20337;DHT22;10326;53.660;10.200;2023-04-03T10:56:54;9.60;62.60
20337;DHT22;10326;53.660;10.200;2023-04-03T10:59:26;9.70;63.00
20337;DHT22;10326;53.660;10.200;2023-04-03T11:01:59;9.70;62.50
20337;DHT22;10326;53.660;10.200;2023-04-03T11:04:34;9.80;62.20
20337;DHT22;10326;53.660;10.200;2023-04-03T11:07:10;9.80;61.50
20337;DHT22;10326;53.660;10.200;2023-04-03T11:09:41;9.90;60.70
20337;DHT22;10326;53.660;10.200;2023-04-03T11:12:14;9.80;60.90
20337;DHT22;10326;53.660;10.200;2023-04-03T11:14:47;9.90;60.50
20337;DHT22;10326;53.660;10.200;2023-04-03T11:17:24;9.80;60.00
20337;DHT22;10326;53.660;10.200;2023-04-03T11:20:00;9.80;59.60
20337;DHT22;10326;53.660;10.200;2023-04-03T11:22:36;9.80;59.60
20337;DHT22;10326;53.660;10.200;2023-04-03T11:25:15;9.80;59.90
20337;DHT22;10326;53.660;10.200;2023-04-03T11:27:49;9.80;59.70
20337;DHT22;10326;53.660;10.200;2023-04-03T11:30:21;9.80;59.50
20337;DHT22;10326;53.660;10.200;2023-04-03T11:33:12;9.80;59.50
20337;DHT22;10326;53.660;10.200;2023-04-03T11:35:49;9.80;58.80
20337;DHT22;10326;53.660;10.200;2023-04-03T11:38:23;9.90;59.30
20337;DHT22;10326;53.660;10.200;2023-04-03T11:40:55;9.90;59.20
20337;DHT22;10326;53.660;10.200;2023-04-03T11:43:25;9.90;59.60
20337;DHT22;10326;53.660;10.200;2023-04-03T11:45:56;10.00;59.80
20337;DHT22;10326;53.660;10.200;2023-04-03T11:48:49;10.00;60.20
20337;DHT22;10326;53.660;10.200;2023-04-03T11:51:51;10.20;60.20
20337;DHT22;10326;53.660;10.200;2023-04-03T11:54:44;10.30;59.80
20337;DHT22;10326;53.660;10.200;2023-04-03T12:00:54;10.70;59.70
20337;DHT22;10326;53.660;10.200;2023-04-03T12:06:59;11.10;59.60
20337;DHT22;10326;53.660;10.200;2023-04-03T12:10:17;11.40;59.50
20337;DHT22;10326;53.660;10.200;2023-04-03T12:12:59;11.50;59.10
20337;DHT22;10326;53.660;10.200;2023-04-03T12:15:51;11.70;59.30
20337;DHT22;10326;53.660;10.200;2023-04-03T12:18:56;11.90;58.90
20337;DHT22;10326;53.660;10.200;2023-04-03T12:24:40;12.20;57.90
20337;DHT22;10326;53.660;10.200;2023-04-03T12:27:39;12.40;59.30
20337;DHT22;10326;53.660;10.200;2023-04-03T12:30:18;12.60;57.80
20337;DHT22;10326;53.660;10.200;2023-04-03T12:33:20;12.80;57.60
20337;DHT22;10326;53.660;10.200;2023-04-03T12:36:02;13.00;57.90
20337;DHT22;10326;53.660;10.200;2023-04-03T12:41:50;13.30;56.40
20337;DHT22;10326;53.660;10.200;2023-04-03T12:44:35;13.40;56.90
20337;DHT22;10326;53.660;10.200;2023-04-03T12:47:22;13.50;56.60
20337;DHT22;10326;53.660;10.200;2023-04-03T12:50:17;13.60;56.20
20337;DHT22;10326;53.660;10.200;2023-04-03T12:52:54;13.70;56.20
20337;DHT22;10326;53.660;10.200;2023-04-03T12:55:24;13.80;56.40
20337;DHT22;10326;53.660;10.200;2023-04-03T12:57:52;13.80;56.40
20337;DHT22;10326;53.660;10.200;2023-04-03T13:00:31;13.90;56.10
20337;DHT22;10326;53.660;10.200;2023-04-03T13:03:01;14.00;55.30
20337;DHT22;10326;53.660;10.200;2023-04-03T13:05:32;14.10;55.80
20337;DHT22;10326;53.660;10.200;2023-04-03T13:08:01;14.10;55.60
20337;DHT22;10326;53.660;10.200;2023-04-03T13:10:31;14.20;55.50
20337;DHT22;10326;53.660;10.200;2023-04-03T13:13:08;14.20;55.10
20337;DHT22;10326;53.660;10.200;2023-04-03T13:15:43;14.30;54.60
20337;DHT22;10326;53.660;10.200;2023-04-03T13:18:27;14.30;54.80
20337;DHT22;10326;53.660;10.200;2023-04-03T13:21:00;14.40;54.60
20337;DHT22;10326;53.660;10.200;2023-04-03T13:23:30;14.50;54.10
20337;DHT22;10326;53.660;10.200;2023-04-03T13:25:59;14.60;54.40
20337;DHT22;10326;53.660;10.200;2023-04-03T13:28:31;14.70;53.90
20337;DHT22;10326;53.660;10.200;2023-04-03T13:31:06;14.80;53.60
20337;DHT22;10326;53.660;10.200;2023-04-03T13:33:36;14.80;52.70
20337;DHT22;10326;53.660;10.200;2023-04-03T13:36:06;14.80;53.80
20337;DHT22;10326;53.660;10.200;2023-04-03T13:38:35;14.90;52.70
20337;DHT22;10326;53.660;10.200;2023-04-03T13:41:20;14.90;52.30
20337;DHT22;10326;53.660;10.200;2023-04-03T13:43:49;14.90;51.60
20337;DHT22;10326;53.660;10.200;2023-04-03T13:46:25;14.80;52.10
20337;DHT22;10326;53.660;10.200;2023-04-03T13:48:55;14.80;52.20
20337;DHT22;10326;53.660;10.200;2023-04-03T13:51:26;14.90;52.50
20337;DHT22;10326;53.660;10.200;2023-04-03T13:53:57;14.90;52.70
20337;DHT22;10326;53.660;10.200;2023-04-03T13:56:30;15.00;52.20
20337;DHT22;10326;53.660;10.200;2023-04-03T13:59:05;15.10;52.10
20337;DHT22;10326;53.660;10.200;2023-04-03T14:01:50;15.20;52.40
20337;DHT22;10326;53.660;10.200;2023-04-03T14:04:21;15.30;51.80
20337;DHT22;10326;53.660;10.200;2023-04-03T14:06:51;15.40;52.10
20337;DHT22;10326;53.660;10.200;2023-04-03T14:09:21;15.40;51.80
20337;DHT22;10326;53.660;10.200;2023-04-03T14:11:50;15.50;51.10
20337;DHT22;10326;53.660;10.200;2023-04-03T14:14:22;15.50;51.40
20337;DHT22;10326;53.660;10.200;2023-04-03T14:16:53;15.60;51.60
20337;DHT22;10326;53.660;10.200;2023-04-03T14:19:25;15.70;51.30
20337;DHT22;10326;53.660;10.200;2023-04-03T14:21:56;15.70;50.80
20337;DHT22;10326;53.660;10.200;2023-04-03T14:24:23;15.80;50.70
20337;DHT22;10326;53.660;10.200;2023-04-03T14:26:52;15.80;50.40
20337;DHT22;10326;53.660;10.200;2023-04-03T14:29:21;15.80;50.20
20337;DHT22;10326;53.660;10.200;2023-04-03T14:31:51;15.70;49.40
20337;DHT22;10326;53.660;10.200;2023-04-03T14:34:18;15.50;49.10
20337;DHT22;10326;53.660;10.200;2023-04-03T14:36:45;15.40;49.50
20337;DHT22;10326;53.660;10.200;2023-04-03T14:39:17;15.20;49.10
20337;DHT22;10326;53.660;10.200;2023-04-03T14:41:45;15.00;48.90
20337;DHT22;10326;53.660;10.200;2023-04-03T14:44:13;14.90;49.20
20337;DHT22;10326;53.660;10.200;2023-04-03T14:46:42;14.80;49.40
20337;DHT22;10326;53.660;10.200;2023-04-03T14:49:14;14.70;49.20
20337;DHT22;10326;53.660;10.200;2023-04-03T14:51:43;14.60;49.10
20337;DHT22;10326;53.660;10.200;2023-04-03T14:54:13;14.50;49.40
20337;DHT22;10326;53.660;10.200;2023-04-03T14:56:42;14.40;49.20
20337;DHT22;10326;53.660;10.200;2023-04-03T14:59:11;14.20;49.20
20337;DHT22;10326;53.660;10.200;2023-04-03T15:01:40;14.10;49.00
20337;DHT22;10326;53.660;10.200;2023-04-03T15:04:10;14.00;49.00
20337;DHT22;10326;53.660;10.200;2023-04-03T15:06:40;13.80;48.80
20337;DHT22;10326;53.660;10.200;2023-04-03T15:09:18;13.70;49.20
20337;DHT22;10326;53.660;10.200;2023-04-03T15:11:47;13.70;48.80
20337;DHT22;10326;53.660;10.200;2023-04-03T15:14:15;13.60;49.20
20337;DHT22;10326;53.660;10.200;2023-04-03T15:16:42;13.50;49.20
20337;DHT22;10326;53.660;10.200;2023-04-03T15:19:09;13.50;49.40
20337;DHT22;10326;53.660;10.200;2023-04-03T15:21:38;13.40;49.10
20337;DHT22;10326;53.660;10.200;2023-04-03T15:24:06;13.30;48.90
20337;DHT22;10326;53.660;10.200;2023-04-03T15:26:35;13.20;48.90
20337;DHT22;10326;53.660;10.200;2023-04-03T15:29:03;13.10;49.20
20337;DHT22;10326;53.660;10.200;2023-04-03T15:31:32;13.00;48.90
20337;DHT22;10326;53.660;10.200;2023-04-03T15:33:59;12.80;48.50
20337;DHT22;10326;53.660;10.200;2023-04-03T15:36:26;12.70;48.70
20337;DHT22;10326;53.660;10.200;2023-04-03T15:38:55;12.60;48.70
20337;DHT22;10326;53.660;10.200;2023-04-03T15:41:22;12.50;48.70
20337;DHT22;10326;53.660;10.200;2023-04-03T15:43:49;12.40;49.30
20337;DHT22;10326;53.660;10.200;2023-04-03T15:46:16;12.30;49.70
20337;DHT22;10326;53.660;10.200;2023-04-03T15:48:43;12.20;49.30
20337;DHT22;10326;53.660;10.200;2023-04-03T15:51:10;12.20;49.70
20337;DHT22;10326;53.660;10.200;2023-04-03T15:53:37;12.10;49.90
20337;DHT22;10326;53.660;10.200;2023-04-03T15:56:06;12.10;49.80
20337;DHT22;10326;53.660;10.200;2023-04-03T15:58:35;12.10;49.80
20337;DHT22;10326;53.660;10.200;2023-04-03T16:01:02;12.00;50.00
20337;DHT22;10326;53.660;10.200;2023-04-03T16:03:29;12.00;50.20
20337;DHT22;10326;53.660;10.200;2023-04-03T16:05:57;11.90;50.20
20337;DHT22;10326;53.660;10.200;2023-04-03T16:08:24;11.90;50.20
20337;DHT22;10326;53.660;10.200;2023-04-03T16:10:51;11.80;50.10
20337;DHT22;10326;53.660;10.200;2023-04-03T16:13:20;11.80;50.20
20337;DHT22;10326;53.660;10.200;2023-04-03T16:15:47;11.80;50.20
20337;DHT22;10326;53.660;10.200;2023-04-03T16:18:15;11.70;50.40
20337;DHT22;10326;53.660;10.200;2023-04-03T16:20:44;11.70;50.40
20337;DHT22;10326;53.660;10.200;2023-04-03T16:23:11;11.70;50.40
20337;DHT22;10326;53.660;10.200;2023-04-03T16:25:38;11.60;50.50